sensor_id;sensor_type;location;lat;lon;timestamp;P1;durP1;ratioP1;P2;durP2;ratioP2
8177;SDS011;4130;48.740;9.132;2023-05-21T00:00:20;6.55;;;4.75;;
8177;SDS011;4130;48.740;9.132;2023-05-21T00:02:47;7.03;;;5.35;;
8177;SDS011;4130;48.740;9.132;2023-05-21T00:05:15;7.07;;;4.95;;
8177;SDS011;4130;48.740;9.132;2023-05-21T00:07:44;5.18;;;4.45;;
8177;SDS011;4130;48.740;9.132;2023-05-21T00:10:11;7.30;;;5.97;;
8177;SDS011;4130;48.740;9.132;2023-05-21T00:12:38;7.38;;;5.70;;
8177;SDS011;4130;48.740;9.132;2023-05-21T00:15:06;7.43;;;6.30;;
8177;SDS011;4130;48.740;9.132;2023-05-21T00:17:33;7.53;;;5.83;;
8177;SDS011;4130;48.740;9.132;2023-05-21T00:20:01;6.80;;;5.13;;
8177;SDS011;4130;48.740;9.132;2023-05-21T00:22:29;6.13;;;5.33;;
8177;SDS011;4130;48.740;9.132;2023-05-21T00:24:59;6.40;;;5.53;;
8177;SDS011;4130;48.740;9.132;2023-05-21T00:27:26;5.88;;;4.80;;
8177;SDS011;4130;48.740;9.132;2023-05-21T00:29:52;6.93;;;5.17;;
8177;SDS011;4130;48.740;9.132;2023-05-21T00:32:19;6.70;;;5.30;;
8177;SDS011;4130;48.740;9.132;2023-05-21T00:34:46;6.83;;;5.40;;
8177;SDS011;4130;48.740;9.132;2023-05-21T00:37:13;5.85;;;5.10;;
8177;SDS011;4130;48.740;9.132;2023-05-21T00:39:40;6.05;;;4.88;;
8177;SDS011;4130;48.740;9.132;2023-05-21T00:42:09;5.23;;;4.73;;
8177;SDS011;4130;48.740;9.132;2023-05-21T00:44:36;8.23;;;5.03;;
8177;SDS011;4130;48.740;9.132;2023-05-21T00:47:03;6.40;;;4.75;;
8177;SDS011;4130;48.740;9.132;2023-05-21T00:49:32;5.80;;;4.67;;
8177;SDS011;4130;48.740;9.132;2023-05-21T00:51:59;6.90;;;4.87;;
8177;SDS011;4130;48.740;9.132;2023-05-21T00:54:26;6.88;;;5.80;;
8177;SDS011;4130;48.740;9.132;2023-05-21T00:56:53;5.43;;;4.87;;
8177;SDS011;4130;48.740;9.132;2023-05-21T00:59:23;5.90;;;5.00;;
8177;SDS011;4130;48.740;9.132;2023-05-21T01:01:50;5.38;;;4.65;;
8177;SDS011;4130;48.740;9.132;2023-05-21T01:04:21;6.87;;;5.20;;
8177;SDS011;4130;48.740;9.132;2023-05-21T01:06:48;6.33;;;5.13;;
8177;SDS011;4130;48.740;9.132;2023-05-21T01:09:15;7.15;;;5.40;;
8177;SDS011;4130;48.740;9.132;2023-05-21T01:11:43;7.27;;;5.63;;
8177;SDS011;4130;48.740;9.132;2023-05-21T01:14:12;6.67;;;5.50;;
8177;SDS011;4130;48.740;9.132;2023-05-21T01:16:43;6.63;;;4.80;;
8177;SDS011;4130;48.740;9.132;2023-05-21T01:19:12;6.90;;;5.47;;
8177;SDS011;4130;48.740;9.132;2023-05-21T01:21:43;6.60;;;5.13;;
8177;SDS011;4130;48.740;9.132;2023-05-21T01:24:13;7.50;;;5.10;;
8177;SDS011;4130;48.740;9.132;2023-05-21T01:26:40;5.90;;;4.97;;
8177;SDS011;4130;48.740;9.132;2023-05-21T01:29:08;7.30;;;5.40;;
8177;SDS011;4130;48.740;9.132;2023-05-21T01:31:40;6.03;;;4.73;;
8177;SDS011;4130;48.740;9.132;2023-05-21T01:34:11;6.43;;;5.60;;
8177;SDS011;4130;48.740;9.132;2023-05-21T01:36:43;7.37;;;5.50;;
8177;SDS011;4130;48.740;9.132;2023-05-21T01:39:16;7.30;;;5.50;;
8177;SDS011;4130;48.740;9.132;2023-05-21T01:41:48;7.13;;;5.47;;
8177;SDS011;4130;48.740;9.132;2023-05-21T01:44:18;5.87;;;5.07;;
8177;SDS011;4130;48.740;9.132;2023-05-21T01:46:47;5.80;;;5.07;;
8177;SDS011;4130;48.740;9.132;2023-05-21T01:49:14;7.03;;;6.20;;
8177;SDS011;4130;48.740;9.132;2023-05-21T01:51:42;6.80;;;5.23;;
8177;SDS011;4130;48.740;9.132;2023-05-21T01:54:10;6.63;;;5.53;;
8177;SDS011;4130;48.740;9.132;2023-05-21T01:56:38;6.60;;;5.63;;
8177;SDS011;4130;48.740;9.132;2023-05-21T01:59:05;6.70;;;5.30;;
8177;SDS011;4130;48.740;9.132;2023-05-21T02:01:32;6.33;;;5.50;;
8177;SDS011;4130;48.740;9.132;2023-05-21T02:03:59;6.37;;;5.10;;
8177;SDS011;4130;48.740;9.132;2023-05-21T02:06:26;7.10;;;5.50;;
8177;SDS011;4130;48.740;9.132;2023-05-21T02:08:53;6.30;;;5.37;;
8177;SDS011;4130;48.740;9.132;2023-05-21T02:11:20;9.83;;;6.73;;
8177;SDS011;4130;48.740;9.132;2023-05-21T02:13:48;7.50;;;5.40;;
8177;SDS011;4130;48.740;9.132;2023-05-21T02:16:16;7.40;;;5.93;;
8177;SDS011;4130;48.740;9.132;2023-05-21T02:18:43;8.40;;;5.37;;
8177;SDS011;4130;48.740;9.132;2023-05-21T02:21:10;6.40;;;5.30;;
8177;SDS011;4130;48.740;9.132;2023-05-21T02:23:37;6.80;;;5.30;;
8177;SDS011;4130;48.740;9.132;2023-05-21T02:26:06;7.40;;;6.20;;
8177;SDS011;4130;48.740;9.132;2023-05-21T02:28:33;6.73;;;5.60;;
8177;SDS011;4130;48.740;9.132;2023-05-21T02:31:01;6.47;;;5.63;;
8177;SDS011;4130;48.740;9.132;2023-05-21T02:33:28;6.67;;;5.43;;
8177;SDS011;4130;48.740;9.132;2023-05-21T02:35:55;6.87;;;5.60;;
8177;SDS011;4130;48.740;9.132;2023-05-21T02:38:22;7.50;;;5.87;;
8177;SDS011;4130;48.740;9.132;2023-05-21T02:40:50;6.67;;;5.60;;
8177;SDS011;4130;48.740;9.132;2023-05-21T02:43:17;7.03;;;5.40;;
8177;SDS011;4130;48.740;9.132;2023-05-21T02:45:43;7.67;;;5.63;;
8177;SDS011;4130;48.740;9.132;2023-05-21T02:48:12;7.07;;;5.60;;
8177;SDS011;4130;48.740;9.132;2023-05-21T02:50:39;6.87;;;5.67;;
8177;SDS011;4130;48.740;9.132;2023-05-21T02:53:06;5.80;;;5.17;;
8177;SDS011;4130;48.740;9.132;2023-05-21T02:55:33;6.60;;;5.47;;
8177;SDS011;4130;48.740;9.132;2023-05-21T02:58:00;6.77;;;5.50;;
8177;SDS011;4130;48.740;9.132;2023-05-21T03:00:27;6.00;;;5.30;;
8177;SDS011;4130;48.740;9.132;2023-05-21T03:02:54;6.93;;;5.53;;
8177;SDS011;4130;48.740;9.132;2023-05-21T03:05:23;6.37;;;5.50;;
8177;SDS011;4130;48.740;9.132;2023-05-21T03:07:49;7.63;;;6.10;;
8177;SDS011;4130;48.740;9.132;2023-05-21T03:10:17;6.37;;;5.23;;
8177;SDS011;4130;48.740;9.132;2023-05-21T03:12:44;6.07;;;5.20;;
8177;SDS011;4130;48.740;9.132;2023-05-21T03:15:11;7.90;;;5.57;;
8177;SDS011;4130;48.740;9.132;2023-05-21T03:17:38;7.17;;;5.80;;
8177;SDS011;4130;48.740;9.132;2023-05-21T03:20:08;7.70;;;5.83;;
8177;SDS011;4130;48.740;9.132;2023-05-21T03:22:41;6.77;;;5.73;;
8177;SDS011;4130;48.740;9.132;2023-05-21T03:25:08;5.97;;;5.30;;
8177;SDS011;4130;48.740;9.132;2023-05-21T03:27:35;6.67;;;5.90;;
8177;SDS011;4130;48.740;9.132;2023-05-21T03:30:03;7.20;;;5.50;;
8177;SDS011;4130;48.740;9.132;2023-05-21T03:32:30;6.67;;;5.67;;
8177;SDS011;4130;48.740;9.132;2023-05-21T03:35:01;6.53;;;5.67;;
8177;SDS011;4130;48.740;9.132;2023-05-21T03:37:29;7.37;;;6.03;;
8177;SDS011;4130;48.740;9.132;2023-05-21T03:39:57;6.83;;;5.60;;
8177;SDS011;4130;48.740;9.132;2023-05-21T03:42:24;8.23;;;5.90;;
8177;SDS011;4130;48.740;9.132;2023-05-21T03:44:51;7.57;;;6.23;;
8177;SDS011;4130;48.740;9.132;2023-05-21T03:47:18;6.80;;;5.27;;
8177;SDS011;4130;48.740;9.132;2023-05-21T03:49:45;6.97;;;5.67;;
8177;SDS011;4130;48.740;9.132;2023-05-21T03:52:12;6.97;;;6.13;;
8177;SDS011;4130;48.740;9.132;2023-05-21T03:54:39;7.13;;;5.80;;
8177;SDS011;4130;48.740;9.132;2023-05-21T03:57:07;7.17;;;5.87;;
8177;SDS011;4130;48.740;9.132;2023-05-21T03:59:34;6.87;;;5.77;;
8177;SDS011;4130;48.740;9.132;2023-05-21T04:02:01;6.37;;;5.30;;
8177;SDS011;4130;48.740;9.132;2023-05-21T04:04:28;6.97;;;5.67;;
8177;SDS011;4130;48.740;9.132;2023-05-21T04:06:55;7.43;;;5.80;;
8177;SDS011;4130;48.740;9.132;2023-05-21T04:09:22;7.43;;;5.73;;
8177;SDS011;4130;48.740;9.132;2023-05-21T04:11:49;6.43;;;5.57;;
8177;SDS011;4130;48.740;9.132;2023-05-21T04:14:17;6.67;;;5.60;;
8177;SDS011;4130;48.740;9.132;2023-05-21T04:16:44;6.73;;;5.47;;
8177;SDS011;4130;48.740;9.132;2023-05-21T04:19:13;8.30;;;5.93;;
8177;SDS011;4130;48.740;9.132;2023-05-21T04:21:40;9.90;;;6.03;;
8177;SDS011;4130;48.740;9.132;2023-05-21T04:24:09;6.80;;;5.50;;
8177;SDS011;4130;48.740;9.132;2023-05-21T04:26:36;8.47;;;5.70;;
8177;SDS011;4130;48.740;9.132;2023-05-21T04:29:06;8.30;;;5.73;;
8177;SDS011;4130;48.740;9.132;2023-05-21T04:31:35;6.97;;;5.90;;
8177;SDS011;4130;48.740;9.132;2023-05-21T04:34:02;6.50;;;5.30;;
8177;SDS011;4130;48.740;9.132;2023-05-21T04:36:29;6.40;;;5.40;;
8177;SDS011;4130;48.740;9.132;2023-05-21T04:38:57;7.23;;;5.87;;
8177;SDS011;4130;48.740;9.132;2023-05-21T04:41:24;7.73;;;5.87;;
8177;SDS011;4130;48.740;9.132;2023-05-21T04:43:52;6.73;;;5.10;;
8177;SDS011;4130;48.740;9.132;2023-05-21T04:46:19;7.40;;;5.73;;
8177;SDS011;4130;48.740;9.132;2023-05-21T04:48:51;6.03;;;5.13;;
8177;SDS011;4130;48.740;9.132;2023-05-21T04:51:19;7.50;;;5.27;;
8177;SDS011;4130;48.740;9.132;2023-05-21T04:53:46;6.63;;;5.57;;
8177;SDS011;4130;48.740;9.132;2023-05-21T04:56:14;6.77;;;5.00;;
8177;SDS011;4130;48.740;9.132;2023-05-21T04:58:42;6.67;;;5.77;;
8177;SDS011;4130;48.740;9.132;2023-05-21T05:01:09;7.40;;;6.17;;
8177;SDS011;4130;48.740;9.132;2023-05-21T05:03:36;7.53;;;5.83;;
8177;SDS011;4130;48.740;9.132;2023-05-21T05:06:05;8.87;;;5.80;;
8177;SDS011;4130;48.740;9.132;2023-05-21T05:08:33;6.73;;;6.00;;
8177;SDS011;4130;48.740;9.132;2023-05-21T05:11:00;7.37;;;5.60;;
8177;SDS011;4130;48.740;9.132;2023-05-21T05:13:27;7.47;;;6.10;;
8177;SDS011;4130;48.740;9.132;2023-05-21T05:15:54;7.23;;;5.53;;
8177;SDS011;4130;48.740;9.132;2023-05-21T05:18:21;6.87;;;5.30;;
8177;SDS011;4130;48.740;9.132;2023-05-21T05:20:48;9.23;;;5.63;;
8177;SDS011;4130;48.740;9.132;2023-05-21T05:23:16;6.70;;;5.70;;
8177;SDS011;4130;48.740;9.132;2023-05-21T05:25:43;7.23;;;5.77;;
8177;SDS011;4130;48.740;9.132;2023-05-21T05:28:10;6.97;;;5.73;;
8177;SDS011;4130;48.740;9.132;2023-05-21T05:30:37;7.13;;;5.50;;
8177;SDS011;4130;48.740;9.132;2023-05-21T05:33:04;7.53;;;5.67;;
8177;SDS011;4130;48.740;9.132;2023-05-21T05:35:31;6.23;;;5.47;;
8177;SDS011;4130;48.740;9.132;2023-05-21T05:37:58;6.53;;;5.45;;
8177;SDS011;4130;48.740;9.132;2023-05-21T05:40:27;7.63;;;5.90;;
8177;SDS011;4130;48.740;9.132;2023-05-21T05:42:54;7.72;;;6.00;;
8177;SDS011;4130;48.740;9.132;2023-05-21T05:45:21;8.00;;;6.47;;
8177;SDS011;4130;48.740;9.132;2023-05-21T05:47:47;7.65;;;5.95;;
8177;SDS011;4130;48.740;9.132;2023-05-21T05:50:14;8.00;;;6.38;;
8177;SDS011;4130;48.740;9.132;2023-05-21T05:52:41;7.22;;;5.93;;
8177;SDS011;4130;48.740;9.132;2023-05-21T05:55:08;9.38;;;6.63;;
8177;SDS011;4130;48.740;9.132;2023-05-21T05:57:38;8.23;;;6.35;;
8177;SDS011;4130;48.740;9.132;2023-05-21T06:00:05;8.05;;;6.32;;
8177;SDS011;4130;48.740;9.132;2023-05-21T06:02:34;8.65;;;6.32;;
8177;SDS011;4130;48.740;9.132;2023-05-21T06:05:01;8.30;;;6.57;;
8177;SDS011;4130;48.740;9.132;2023-05-21T06:07:28;7.70;;;6.65;;
8177;SDS011;4130;48.740;9.132;2023-05-21T06:09:55;8.05;;;6.70;;
8177;SDS011;4130;48.740;9.132;2023-05-21T06:12:22;7.45;;;5.95;;
8177;SDS011;4130;48.740;9.132;2023-05-21T06:14:51;8.18;;;6.07;;
8177;SDS011;4130;48.740;9.132;2023-05-21T06:17:18;8.02;;;6.30;;
8177;SDS011;4130;48.740;9.132;2023-05-21T06:19:45;8.82;;;6.60;;
8177;SDS011;4130;48.740;9.132;2023-05-21T06:22:12;7.38;;;6.28;;
8177;SDS011;4130;48.740;9.132;2023-05-21T06:24:39;8.48;;;6.30;;
8177;SDS011;4130;48.740;9.132;2023-05-21T06:27:06;10.68;;;6.70;;
8177;SDS011;4130;48.740;9.132;2023-05-21T06:29:33;7.70;;;6.22;;
8177;SDS011;4130;48.740;9.132;2023-05-21T06:32:01;8.07;;;6.45;;
8177;SDS011;4130;48.740;9.132;2023-05-21T06:34:28;8.45;;;6.10;;
8177;SDS011;4130;48.740;9.132;2023-05-21T06:36:55;8.60;;;6.75;;
8177;SDS011;4130;48.740;9.132;2023-05-21T06:39:22;6.78;;;5.95;;
8177;SDS011;4130;48.740;9.132;2023-05-21T06:41:51;8.50;;;6.43;;
8177;SDS011;4130;48.740;9.132;2023-05-21T06:44:18;9.52;;;6.25;;
8177;SDS011;4130;48.740;9.132;2023-05-21T06:46:46;7.70;;;6.28;;
8177;SDS011;4130;48.740;9.132;2023-05-21T06:49:14;7.53;;;6.43;;
8177;SDS011;4130;48.740;9.132;2023-05-21T06:51:41;8.13;;;6.05;;
8177;SDS011;4130;48.740;9.132;2023-05-21T06:54:08;9.60;;;6.20;;
8177;SDS011;4130;48.740;9.132;2023-05-21T06:56:35;8.43;;;6.32;;
8177;SDS011;4130;48.740;9.132;2023-05-21T06:59:02;6.65;;;5.97;;
8177;SDS011;4130;48.740;9.132;2023-05-21T07:01:29;9.77;;;6.43;;
8177;SDS011;4130;48.740;9.132;2023-05-21T07:03:56;9.25;;;6.13;;
8177;SDS011;4130;48.740;9.132;2023-05-21T07:06:24;9.02;;;6.78;;
8177;SDS011;4130;48.740;9.132;2023-05-21T07:08:51;8.15;;;6.13;;
8177;SDS011;4130;48.740;9.132;2023-05-21T07:11:18;8.30;;;6.00;;
8177;SDS011;4130;48.740;9.132;2023-05-21T07:13:45;7.10;;;5.90;;
8177;SDS011;4130;48.740;9.132;2023-05-21T07:16:12;8.55;;;6.18;;
8177;SDS011;4130;48.740;9.132;2023-05-21T07:18:40;6.85;;;5.80;;
8177;SDS011;4130;48.740;9.132;2023-05-21T07:21:07;7.75;;;6.43;;
8177;SDS011;4130;48.740;9.132;2023-05-21T07:23:35;6.60;;;5.50;;
8177;SDS011;4130;48.740;9.132;2023-05-21T07:26:02;6.70;;;5.82;;
8177;SDS011;4130;48.740;9.132;2023-05-21T07:28:29;6.68;;;5.88;;
8177;SDS011;4130;48.740;9.132;2023-05-21T07:30:56;6.72;;;5.85;;
8177;SDS011;4130;48.740;9.132;2023-05-21T07:33:24;7.60;;;5.85;;
8177;SDS011;4130;48.740;9.132;2023-05-21T07:35:50;5.78;;;5.18;;
8177;SDS011;4130;48.740;9.132;2023-05-21T07:38:17;6.60;;;5.60;;
8177;SDS011;4130;48.740;9.132;2023-05-21T07:40:46;7.00;;;5.70;;
8177;SDS011;4130;48.740;9.132;2023-05-21T07:43:13;7.88;;;6.15;;
8177;SDS011;4130;48.740;9.132;2023-05-21T07:45:40;8.10;;;5.30;;
8177;SDS011;4130;48.740;9.132;2023-05-21T07:48:07;6.72;;;5.50;;
8177;SDS011;4130;48.740;9.132;2023-05-21T07:50:34;6.20;;;5.60;;
8177;SDS011;4130;48.740;9.132;2023-05-21T07:53:01;7.57;;;5.72;;
8177;SDS011;4130;48.740;9.132;2023-05-21T07:55:28;7.88;;;6.05;;
8177;SDS011;4130;48.740;9.132;2023-05-21T07:57:57;7.13;;;6.00;;
8177;SDS011;4130;48.740;9.132;2023-05-21T08:00:24;7.40;;;6.03;;
8177;SDS011;4130;48.740;9.132;2023-05-21T08:02:50;7.10;;;5.50;;
8177;SDS011;4130;48.740;9.132;2023-05-21T08:05:18;7.70;;;5.68;;
8177;SDS011;4130;48.740;9.132;2023-05-21T08:07:45;7.15;;;5.22;;
8177;SDS011;4130;48.740;9.132;2023-05-21T08:10:12;8.15;;;5.70;;
8177;SDS011;4130;48.740;9.132;2023-05-21T08:12:39;7.90;;;5.55;;
8177;SDS011;4130;48.740;9.132;2023-05-21T08:15:08;6.28;;;5.50;;
8177;SDS011;4130;48.740;9.132;2023-05-21T08:17:35;7.45;;;5.97;;
8177;SDS011;4130;48.740;9.132;2023-05-21T08:20:02;6.68;;;5.55;;
8177;SDS011;4130;48.740;9.132;2023-05-21T08:22:30;6.78;;;5.53;;
8177;SDS011;4130;48.740;9.132;2023-05-21T08:24:57;5.70;;;5.10;;
8177;SDS011;4130;48.740;9.132;2023-05-21T08:27:23;6.28;;;5.07;;
8177;SDS011;4130;48.740;9.132;2023-05-21T08:29:50;6.55;;;5.65;;
8177;SDS011;4130;48.740;9.132;2023-05-21T08:32:19;7.65;;;5.22;;
8177;SDS011;4130;48.740;9.132;2023-05-21T08:34:46;5.78;;;5.18;;
8177;SDS011;4130;48.740;9.132;2023-05-21T08:37:13;5.30;;;4.72;;
8177;SDS011;4130;48.740;9.132;2023-05-21T08:39:42;7.15;;;4.78;;
8177;SDS011;4130;48.740;9.132;2023-05-21T08:42:10;6.63;;;5.47;;
8177;SDS011;4130;48.740;9.132;2023-05-21T08:44:42;7.35;;;5.93;;
8177;SDS011;4130;48.740;9.132;2023-05-21T08:47:17;6.10;;;5.20;;
8177;SDS011;4130;48.740;9.132;2023-05-21T08:49:48;7.20;;;5.43;;
8177;SDS011;4130;48.740;9.132;2023-05-21T08:52:16;5.53;;;5.03;;
8177;SDS011;4130;48.740;9.132;2023-05-21T08:54:44;6.10;;;5.00;;
8177;SDS011;4130;48.740;9.132;2023-05-21T08:57:11;6.28;;;4.57;;
8177;SDS011;4130;48.740;9.132;2023-05-21T08:59:40;5.30;;;4.80;;
8177;SDS011;4130;48.740;9.132;2023-05-21T09:02:09;6.65;;;4.55;;
8177;SDS011;4130;48.740;9.132;2023-05-21T09:04:39;5.80;;;5.20;;
8177;SDS011;4130;48.740;9.132;2023-05-21T09:07:07;5.97;;;4.97;;
8177;SDS011;4130;48.740;9.132;2023-05-21T09:09:37;5.90;;;4.95;;
8177;SDS011;4130;48.740;9.132;2023-05-21T09:12:08;6.15;;;5.30;;
8177;SDS011;4130;48.740;9.132;2023-05-21T09:14:35;5.55;;;4.97;;
8177;SDS011;4130;48.740;9.132;2023-05-21T09:17:03;5.93;;;4.93;;
8177;SDS011;4130;48.740;9.132;2023-05-21T09:19:30;5.50;;;4.95;;
8177;SDS011;4130;48.740;9.132;2023-05-21T09:22:01;6.70;;;5.10;;
8177;SDS011;4130;48.740;9.132;2023-05-21T09:24:29;7.80;;;5.07;;
8177;SDS011;4130;48.740;9.132;2023-05-21T09:26:57;5.25;;;4.75;;
8177;SDS011;4130;48.740;9.132;2023-05-21T09:29:24;6.00;;;5.38;;
8177;SDS011;4130;48.740;9.132;2023-05-21T09:31:51;5.65;;;4.75;;
8177;SDS011;4130;48.740;9.132;2023-05-21T09:34:19;6.13;;;5.53;;
8177;SDS011;4130;48.740;9.132;2023-05-21T09:36:47;5.75;;;5.18;;
8177;SDS011;4130;48.740;9.132;2023-05-21T09:39:27;5.75;;;5.15;;
8177;SDS011;4130;48.740;9.132;2023-05-21T09:41:55;5.38;;;4.88;;
8177;SDS011;4130;48.740;9.132;2023-05-21T09:44:22;6.38;;;5.10;;
8177;SDS011;4130;48.740;9.132;2023-05-21T09:46:49;6.85;;;4.95;;
8177;SDS011;4130;48.740;9.132;2023-05-21T09:49:22;5.57;;;4.97;;
8177;SDS011;4130;48.740;9.132;2023-05-21T09:51:53;5.60;;;5.00;;
8177;SDS011;4130;48.740;9.132;2023-05-21T09:54:21;5.75;;;5.13;;
8177;SDS011;4130;48.740;9.132;2023-05-21T09:56:49;6.38;;;5.35;;
8177;SDS011;4130;48.740;9.132;2023-05-21T09:59:17;5.78;;;5.05;;
8177;SDS011;4130;48.740;9.132;2023-05-21T10:01:44;5.28;;;4.68;;
8177;SDS011;4130;48.740;9.132;2023-05-21T10:04:11;6.68;;;4.75;;
8177;SDS011;4130;48.740;9.132;2023-05-21T10:06:41;5.78;;;5.18;;
8177;SDS011;4130;48.740;9.132;2023-05-21T10:09:08;5.63;;;5.03;;
8177;SDS011;4130;48.740;9.132;2023-05-21T10:11:36;5.43;;;4.90;;
8177;SDS011;4130;48.740;9.132;2023-05-21T10:14:08;4.70;;;4.30;;
8177;SDS011;4130;48.740;9.132;2023-05-21T10:16:40;4.78;;;4.28;;
8177;SDS011;4130;48.740;9.132;2023-05-21T10:19:09;6.25;;;4.80;;
8177;SDS011;4130;48.740;9.132;2023-05-21T10:21:37;5.13;;;4.65;;
8177;SDS011;4130;48.740;9.132;2023-05-21T10:24:05;5.60;;;4.93;;
8177;SDS011;4130;48.740;9.132;2023-05-21T10:26:33;6.57;;;4.88;;
8177;SDS011;4130;48.740;9.132;2023-05-21T10:29:01;5.22;;;4.57;;
8177;SDS011;4130;48.740;9.132;2023-05-21T10:31:30;4.47;;;4.07;;
8177;SDS011;4130;48.740;9.132;2023-05-21T10:33:59;5.20;;;4.57;;
8177;SDS011;4130;48.740;9.132;2023-05-21T10:39:28;4.20;;;3.83;;
8177;SDS011;4130;48.740;9.132;2023-05-21T10:41:57;4.22;;;3.75;;
8177;SDS011;4130;48.740;9.132;2023-05-21T10:44:37;4.85;;;4.13;;
8177;SDS011;4130;48.740;9.132;2023-05-21T10:47:25;4.45;;;4.05;;
8177;SDS011;4130;48.740;9.132;2023-05-21T10:50:14;5.00;;;4.15;;
8177;SDS011;4130;48.740;9.132;2023-05-21T10:52:54;4.72;;;3.70;;
8177;SDS011;4130;48.740;9.132;2023-05-21T10:55:35;4.35;;;3.95;;
8177;SDS011;4130;48.740;9.132;2023-05-21T11:01:07;4.65;;;4.10;;
8177;SDS011;4130;48.740;9.132;2023-05-21T11:03:36;4.20;;;3.80;;
8177;SDS011;4130;48.740;9.132;2023-05-21T11:06:04;4.25;;;3.83;;
8177;SDS011;4130;48.740;9.132;2023-05-21T11:08:32;4.47;;;3.88;;
8177;SDS011;4130;48.740;9.132;2023-05-21T11:11:00;5.93;;;4.05;;
8177;SDS011;4130;48.740;9.132;2023-05-21T11:13:28;5.72;;;4.57;;
8177;SDS011;4130;48.740;9.132;2023-05-21T11:16:13;6.10;;;3.97;;
8177;SDS011;4130;48.740;9.132;2023-05-21T11:21:27;4.72;;;4.15;;
8177;SDS011;4130;48.740;9.132;2023-05-21T11:24:01;4.90;;;3.95;;
8177;SDS011;4130;48.740;9.132;2023-05-21T11:29:30;6.95;;;4.18;;
8177;SDS011;4130;48.740;9.132;2023-05-21T11:32:08;4.95;;;4.20;;
8177;SDS011;4130;48.740;9.132;2023-05-21T11:34:41;4.60;;;4.13;;
8177;SDS011;4130;48.740;9.132;2023-05-21T11:42:51;4.18;;;3.78;;
8177;SDS011;4130;48.740;9.132;2023-05-21T11:45:20;4.45;;;4.05;;
8177;SDS011;4130;48.740;9.132;2023-05-21T11:47:50;4.47;;;4.07;;
8177;SDS011;4130;48.740;9.132;2023-05-21T11:50:19;4.65;;;4.25;;
8177;SDS011;4130;48.740;9.132;2023-05-21T11:52:46;4.18;;;3.78;;
8177;SDS011;4130;48.740;9.132;2023-05-21T11:55:14;4.90;;;4.40;;
8177;SDS011;4130;48.740;9.132;2023-05-21T11:57:46;4.18;;;3.72;;
8177;SDS011;4130;48.740;9.132;2023-05-21T12:00:17;4.25;;;3.85;;
8177;SDS011;4130;48.740;9.132;2023-05-21T12:02:46;4.70;;;4.18;;
8177;SDS011;4130;48.740;9.132;2023-05-21T12:05:15;4.25;;;3.85;;
8177;SDS011;4130;48.740;9.132;2023-05-21T12:07:46;4.60;;;4.20;;
8177;SDS011;4130;48.740;9.132;2023-05-21T12:10:15;4.13;;;3.67;;
8177;SDS011;4130;48.740;9.132;2023-05-21T12:12:42;5.10;;;4.20;;
8177;SDS011;4130;48.740;9.132;2023-05-21T12:15:09;4.18;;;3.78;;
8177;SDS011;4130;48.740;9.132;2023-05-21T12:17:37;4.50;;;3.75;;
8177;SDS011;4130;48.740;9.132;2023-05-21T12:20:05;4.50;;;4.10;;
8177;SDS011;4130;48.740;9.132;2023-05-21T12:22:34;5.07;;;4.10;;
8177;SDS011;4130;48.740;9.132;2023-05-21T12:25:09;5.75;;;4.40;;
8177;SDS011;4130;48.740;9.132;2023-05-21T12:27:37;6.10;;;4.22;;
8177;SDS011;4130;48.740;9.132;2023-05-21T12:30:06;4.25;;;3.85;;
8177;SDS011;4130;48.740;9.132;2023-05-21T12:32:35;4.65;;;4.05;;
8177;SDS011;4130;48.740;9.132;2023-05-21T12:35:08;3.80;;;3.50;;
8177;SDS011;4130;48.740;9.132;2023-05-21T12:37:45;5.63;;;4.07;;
8177;SDS011;4130;48.740;9.132;2023-05-21T12:40:15;5.25;;;4.05;;
8177;SDS011;4130;48.740;9.132;2023-05-21T12:42:43;4.68;;;4.07;;
8177;SDS011;4130;48.740;9.132;2023-05-21T12:45:11;4.63;;;3.80;;
8177;SDS011;4130;48.740;9.132;2023-05-21T12:47:38;4.18;;;3.78;;
8177;SDS011;4130;48.740;9.132;2023-05-21T12:50:07;4.80;;;4.03;;
8177;SDS011;4130;48.740;9.132;2023-05-21T12:52:35;4.18;;;3.75;;
8177;SDS011;4130;48.740;9.132;2023-05-21T12:55:03;3.80;;;3.40;;
8177;SDS011;4130;48.740;9.132;2023-05-21T12:57:35;4.68;;;4.05;;
8177;SDS011;4130;48.740;9.132;2023-05-21T13:00:03;4.50;;;3.60;;
8177;SDS011;4130;48.740;9.132;2023-05-21T13:02:32;4.22;;;3.80;;
8177;SDS011;4130;48.740;9.132;2023-05-21T13:05:04;3.95;;;3.47;;
8177;SDS011;4130;48.740;9.132;2023-05-21T13:07:32;4.60;;;3.50;;
8177;SDS011;4130;48.740;9.132;2023-05-21T13:10:02;5.03;;;3.42;;
8177;SDS011;4130;48.740;9.132;2023-05-21T13:12:30;5.30;;;3.92;;
8177;SDS011;4130;48.740;9.132;2023-05-21T13:15:00;3.70;;;3.40;;
8177;SDS011;4130;48.740;9.132;2023-05-21T13:17:28;3.60;;;3.30;;
8177;SDS011;4130;48.740;9.132;2023-05-21T13:20:05;4.47;;;3.65;;
8177;SDS011;4130;48.740;9.132;2023-05-21T13:22:34;4.50;;;3.67;;
8177;SDS011;4130;48.740;9.132;2023-05-21T13:25:03;3.80;;;3.40;;
8177;SDS011;4130;48.740;9.132;2023-05-21T13:27:31;3.13;;;2.83;;
8177;SDS011;4130;48.740;9.132;2023-05-21T13:29:58;4.07;;;3.25;;
8177;SDS011;4130;48.740;9.132;2023-05-21T13:32:27;3.72;;;3.30;;
8177;SDS011;4130;48.740;9.132;2023-05-21T13:34:54;3.10;;;2.80;;
8177;SDS011;4130;48.740;9.132;2023-05-21T13:37:20;2.85;;;2.65;;
8177;SDS011;4130;48.740;9.132;2023-05-21T13:39:47;3.03;;;2.72;;
8177;SDS011;4130;48.740;9.132;2023-05-21T13:42:15;2.72;;;2.53;;
8177;SDS011;4130;48.740;9.132;2023-05-21T13:44:42;2.83;;;2.63;;
8177;SDS011;4130;48.740;9.132;2023-05-21T13:47:09;3.33;;;3.00;;
8177;SDS011;4130;48.740;9.132;2023-05-21T13:49:37;2.92;;;2.67;;
8177;SDS011;4130;48.740;9.132;2023-05-21T13:52:06;3.50;;;3.17;;
8177;SDS011;4130;48.740;9.132;2023-05-21T13:54:34;3.40;;;3.10;;
8177;SDS011;4130;48.740;9.132;2023-05-21T13:57:01;3.35;;;3.08;;
8177;SDS011;4130;48.740;9.132;2023-05-21T13:59:28;3.50;;;2.80;;
8177;SDS011;4130;48.740;9.132;2023-05-21T14:01:56;3.55;;;3.22;;
8177;SDS011;4130;48.740;9.132;2023-05-21T14:04:23;2.90;;;2.60;;
8177;SDS011;4130;48.740;9.132;2023-05-21T14:06:52;3.60;;;2.75;;
8177;SDS011;4130;48.740;9.132;2023-05-21T14:09:19;3.28;;;2.90;;
8177;SDS011;4130;48.740;9.132;2023-05-21T14:11:47;3.45;;;3.10;;
8177;SDS011;4130;48.740;9.132;2023-05-21T14:14:14;3.40;;;3.08;;
8177;SDS011;4130;48.740;9.132;2023-05-21T14:16:44;3.53;;;3.22;;
8177;SDS011;4130;48.740;9.132;2023-05-21T14:19:12;2.40;;;2.20;;
8177;SDS011;4130;48.740;9.132;2023-05-21T14:21:39;2.97;;;2.75;;
8177;SDS011;4130;48.740;9.132;2023-05-21T14:24:07;3.67;;;3.05;;
8177;SDS011;4130;48.740;9.132;2023-05-21T14:26:35;2.78;;;2.55;;
8177;SDS011;4130;48.740;9.132;2023-05-21T14:29:05;3.40;;;3.10;;
8177;SDS011;4130;48.740;9.132;2023-05-21T14:31:32;3.00;;;2.70;;
8177;SDS011;4130;48.740;9.132;2023-05-21T14:33:59;3.33;;;3.03;;
8177;SDS011;4130;48.740;9.132;2023-05-21T14:36:26;3.05;;;2.75;;
8177;SDS011;4130;48.740;9.132;2023-05-21T14:38:53;3.15;;;2.85;;
8177;SDS011;4130;48.740;9.132;2023-05-21T14:41:24;3.58;;;2.88;;
8177;SDS011;4130;48.740;9.132;2023-05-21T14:43:51;3.35;;;3.05;;
8177;SDS011;4130;48.740;9.132;2023-05-21T14:46:18;3.22;;;2.88;;
8177;SDS011;4130;48.740;9.132;2023-05-21T14:48:45;3.55;;;3.00;;
8177;SDS011;4130;48.740;9.132;2023-05-21T14:51:12;3.33;;;2.70;;
8177;SDS011;4130;48.740;9.132;2023-05-21T14:53:40;2.55;;;2.35;;
8177;SDS011;4130;48.740;9.132;2023-05-21T14:56:07;3.17;;;2.85;;
8177;SDS011;4130;48.740;9.132;2023-05-21T14:58:35;2.63;;;2.42;;
8177;SDS011;4130;48.740;9.132;2023-05-21T15:01:02;3.00;;;2.65;;
8177;SDS011;4130;48.740;9.132;2023-05-21T15:03:29;3.63;;;2.97;;
8177;SDS011;4130;48.740;9.132;2023-05-21T15:05:56;3.10;;;2.72;;
8177;SDS011;4130;48.740;9.132;2023-05-21T15:08:23;4.55;;;2.78;;
8177;SDS011;4130;48.740;9.132;2023-05-21T15:10:50;2.90;;;2.70;;
8177;SDS011;4130;48.740;9.132;2023-05-21T15:13:19;3.80;;;3.10;;
8177;SDS011;4130;48.740;9.132;2023-05-21T15:15:47;3.10;;;2.80;;
8177;SDS011;4130;48.740;9.132;2023-05-21T15:18:15;3.42;;;3.13;;
8177;SDS011;4130;48.740;9.132;2023-05-21T15:20:42;3.38;;;2.60;;
8177;SDS011;4130;48.740;9.132;2023-05-21T15:23:09;2.70;;;2.45;;
8177;SDS011;4130;48.740;9.132;2023-05-21T15:25:36;2.47;;;2.28;;
8177;SDS011;4130;48.740;9.132;2023-05-21T15:28:03;2.83;;;2.50;;
8177;SDS011;4130;48.740;9.132;2023-05-21T15:30:30;3.17;;;2.80;;
8177;SDS011;4130;48.740;9.132;2023-05-21T15:32:59;2.85;;;2.50;;
8177;SDS011;4130;48.740;9.132;2023-05-21T15:38:47;3.38;;;2.70;;
8177;SDS011;4130;48.740;9.132;2023-05-21T15:41:14;2.35;;;2.03;;